Time;durP1;ratioP1;P1;durP2;ratioP2;P2;SDS_P1;SDS_P2;PMS_P1;PMS_P2;Temp;Humidity;BMP_temperature;BMP_pressure;BME280_temperature;BME280_humidity;BME280_pressure;Samples;Min_cycle;Max_cycle;Signal;HPM_P1;HPM_P2
2024/02/06 00:02:01;;;;;;;6.55;3.47;;;10.70;94.80;;;;;;5045585;28;20025;-67
2024/02/06 00:04:26;;;;;;;7.88;4.00;;;10.60;94.80;;;;;;5045637;28;20514;-67
2024/02/06 00:06:52;;;;;;;4.10;3.00;;;10.70;94.80;;;;;;5044510;28;20056;-68
2024/02/06 00:09:26;;;;;;;6.25;3.55;;;10.70;94.70;;;;;;5047937;28;20029;-68
2024/02/06 00:11:52;;;;;;;4.80;3.30;;;10.70;94.70;;;;;;5046618;28;20033;-68
2024/02/06 00:14:17;;;;;;;6.28;3.38;;;10.60;94.70;;;;;;5043696;28;20383;-68
2024/02/06 00:16:44;;;;;;;5.30;3.10;;;10.60;94.70;;;;;;5045526;28;20162;-68
2024/02/06 00:19:10;;;;;;;4.55;3.25;;;10.60;94.70;;;;;;5046693;28;20029;-69
2024/02/06 00:21:35;;;;;;;5.07;3.30;;;10.60;94.70;;;;;;5046567;28;20036;-69
2024/02/06 00:24:01;;;;;;;7.45;3.67;;;10.60;94.70;;;;;;5047379;28;20348;-69
2024/02/06 00:26:27;;;;;;;5.35;3.60;;;10.60;94.70;;;;;;5046533;28;20029;-69
2024/02/06 00:28:52;;;;;;;6.90;4.22;;;10.60;94.70;;;;;;5048035;28;20029;-68
2024/02/06 00:31:18;;;;;;;4.43;3.10;;;10.60;94.70;;;;;;5045006;28;20028;-69
2024/02/06 00:33:43;;;;;;;6.15;3.60;;;10.60;94.70;;;;;;5045641;28;20025;-68
2024/02/06 00:36:09;;;;;;;6.28;3.15;;;10.60;94.70;;;;;;5044975;28;20106;-68
2024/02/06 00:38:35;;;;;;;5.15;3.40;;;10.60;94.70;;;;;;5045050;28;20036;-69
2024/02/06 00:41:00;;;;;;;9.38;5.03;;;10.60;94.70;;;;;;5043807;28;20096;-69
2024/02/06 00:43:26;;;;;;;6.35;4.07;;;10.60;94.70;;;;;;5044299;28;20026;-69
2024/02/06 00:45:51;;;;;;;5.57;3.25;;;10.60;94.80;;;;;;5046473;28;20110;-69
2024/02/06 00:48:17;;;;;;;4.82;3.60;;;10.60;94.70;;;;;;5046078;28;20043;-68
2024/02/06 00:50:42;;;;;;;6.00;3.20;;;10.60;94.70;;;;;;5048765;28;20035;-67
2024/02/06 00:53:08;;;;;;;7.25;4.10;;;10.60;94.70;;;;;;5044612;28;20025;-68
2024/02/06 00:55:34;;;;;;;6.47;3.47;;;10.60;94.70;;;;;;5047073;28;20025;-68
2024/02/06 00:57:59;;;;;;;4.35;3.10;;;10.60;94.80;;;;;;5047678;28;20033;-67
2024/02/06 01:00:25;;;;;;;5.47;3.50;;;10.60;94.80;;;;;;5047083;28;20032;-68
2024/02/06 01:02:50;;;;;;;7.05;4.00;;;10.60;94.80;;;;;;5047602;28;20037;-68
2024/02/06 01:05:16;;;;;;;7.10;4.30;;;10.60;94.80;;;;;;5047486;28;20024;-68
2024/02/06 01:07:41;;;;;;;7.13;4.28;;;10.60;94.80;;;;;;5047557;28;20103;-69
2024/02/06 01:10:07;;;;;;;8.10;5.53;;;10.60;94.80;;;;;;5047975;28;20029;-68
2024/02/06 01:12:33;;;;;;;8.85;4.70;;;10.60;94.80;;;;;;5047446;28;20052;-69
2024/02/06 01:14:59;;;;;;;5.85;4.13;;;10.60;94.80;;;;;;5040867;28;20025;-67
2024/02/06 01:17:25;;;;;;;8.85;4.50;;;10.60;94.80;;;;;;5046280;28;20033;-67
2024/02/06 01:19:51;;;;;;;6.90;4.78;;;10.60;94.80;;;;;;5045339;28;20052;-68
2024/02/06 01:22:17;;;;;;;8.13;4.70;;;10.60;94.80;;;;;;5045034;28;20056;-67
2024/02/06 01:24:42;;;;;;;9.18;4.78;;;10.60;94.80;;;;;;5044699;28;20024;-67
2024/02/06 01:27:08;;;;;;;6.90;3.75;;;10.60;94.80;;;;;;5045719;28;20017;-67
2024/02/06 01:29:34;;;;;;;6.57;4.10;;;10.60;94.90;;;;;;5047142;28;20082;-70
2024/02/06 01:31:59;;;;;;;6.60;3.65;;;10.60;94.80;;;;;;5047532;28;20112;-67
2024/02/06 01:34:25;;;;;;;7.55;4.15;;;10.60;94.80;;;;;;5045586;28;20518;-68
2024/02/06 01:36:50;;;;;;;7.18;4.60;;;10.60;94.70;;;;;;5045472;28;20029;-68
2024/02/06 01:39:17;;;;;;;7.78;3.97;;;10.70;94.80;;;;;;5043408;28;20051;-67
2024/02/06 01:41:43;;;;;;;8.88;3.90;;;10.70;94.70;;;;;;5045102;28;20033;-68
2024/02/06 01:44:08;;;;;;;6.07;3.30;;;10.70;94.70;;;;;;5045356;28;20685;-68
2024/02/06 01:46:34;;;;;;;6.45;3.80;;;10.70;94.70;;;;;;5046576;28;20021;-67
2024/02/06 01:49:02;;;;;;;6.43;4.00;;;10.70;94.70;;;;;;5047112;28;20057;-68
2024/02/06 01:51:31;;;;;;;7.78;3.63;;;10.70;94.70;;;;;;5047478;28;20025;-68
2024/02/06 01:53:57;;;;;;;4.93;2.85;;;10.70;94.70;;;;;;5042851;28;20108;-67
2024/02/06 01:56:23;;;;;;;6.00;3.72;;;10.70;94.60;;;;;;5044854;28;20036;-67
2024/02/06 01:58:49;;;;;;;7.97;4.07;;;10.70;94.70;;;;;;5046160;28;20021;-67
2024/02/06 02:01:16;;;;;;;7.07;4.30;;;10.70;94.60;;;;;;5040213;28;20017;-67
2024/02/06 02:03:43;;;;;;;6.65;3.85;;;10.70;94.70;;;;;;5046307;28;20037;-67
2024/02/06 02:06:10;;;;;;;10.55;4.90;;;10.70;94.70;;;;;;5042949;28;20023;-67
2024/02/06 02:08:36;;;;;;;9.65;4.90;;;10.70;94.70;;;;;;5045073;28;20032;-67
2024/02/06 02:11:05;;;;;;;7.10;3.88;;;10.70;94.70;;;;;;5047119;28;20099;-67
2024/02/06 02:13:31;;;;;;;5.38;3.63;;;10.70;94.60;;;;;;5047569;28;20458;-67
2024/02/06 02:15:57;;;;;;;6.85;3.55;;;10.70;94.60;;;;;;5045035;28;20112;-67
2024/02/06 02:18:30;;;;;;;5.28;2.88;;;10.70;94.60;;;;;;5046437;28;20029;-67
2024/02/06 02:20:56;;;;;;;4.65;2.92;;;10.70;94.60;;;;;;5044976;28;20045;-68
2024/02/06 02:23:21;;;;;;;6.10;3.40;;;10.70;94.60;;;;;;5046445;28;20106;-68
2024/02/06 02:25:47;;;;;;;8.43;3.75;;;10.70;94.50;;;;;;5044380;28;20032;-69
2024/02/06 02:28:14;;;;;;;4.53;2.80;;;10.70;94.50;;;;;;5046150;28;20017;-67
2024/02/06 02:30:40;;;;;;;6.07;3.20;;;10.70;94.50;;;;;;5046425;28;20071;-67
2024/02/06 02:33:06;;;;;;;6.18;3.20;;;10.80;94.50;;;;;;5048056;28;20095;-67
2024/02/06 02:35:32;;;;;;;7.35;3.65;;;10.80;94.50;;;;;;5047517;28;20102;-68
2024/02/06 02:37:58;;;;;;;5.53;3.40;;;10.70;94.40;;;;;;5050573;28;20025;-67
2024/02/06 02:40:23;;;;;;;5.65;2.67;;;10.80;94.50;;;;;;5046784;28;20056;-67
2024/02/06 02:42:49;;;;;;;8.25;3.70;;;10.80;94.80;;;;;;5051042;28;20043;-67
2024/02/06 02:45:14;;;;;;;5.82;3.65;;;10.70;94.40;;;;;;5049876;28;20033;-67
2024/02/06 02:47:42;;;;;;;6.35;3.20;;;10.70;94.40;;;;;;5044985;28;20028;-68
2024/02/06 02:50:08;;;;;;;5.78;2.95;;;10.70;94.40;;;;;;5048001;28;20484;-66
2024/02/06 02:52:34;;;;;;;4.82;2.95;;;10.80;94.40;;;;;;5049334;28;20063;-67
2024/02/06 02:54:59;;;;;;;5.70;2.63;;;10.80;94.40;;;;;;5050307;28;20044;-66
2024/02/06 02:57:25;;;;;;;4.43;2.28;;;10.80;94.30;;;;;;5049265;28;20060;-67
2024/02/06 02:59:50;;;;;;;6.05;2.92;;;10.80;94.30;;;;;;5049537;28;20052;-67
2024/02/06 03:02:16;;;;;;;5.95;2.55;;;10.80;94.30;;;;;;5048121;28;20036;-67
2024/02/06 03:04:42;;;;;;;11.07;3.65;;;10.80;94.20;;;;;;5049728;28;20029;-69
2024/02/06 03:07:08;;;;;;;5.75;2.65;;;10.80;94.20;;;;;;5050205;28;20017;-67
2024/02/06 03:09:34;;;;;;;6.63;2.75;;;10.80;94.20;;;;;;5048905;28;20021;-68
2024/02/06 03:11:59;;;;;;;5.05;2.25;;;10.80;94.10;;;;;;5049303;28;20025;-68
2024/02/06 03:14:25;;;;;;;7.65;2.75;;;10.80;94.10;;;;;;5051151;28;20039;-69
2024/02/06 03:16:50;;;;;;;6.90;2.35;;;10.80;94.10;;;;;;5043449;28;20028;-68
2024/02/06 03:19:16;;;;;;;5.85;2.58;;;10.90;94.10;;;;;;5055927;28;20033;-69
2024/02/06 03:21:41;;;;;;;7.50;2.83;;;10.90;94.20;;;;;;5050303;28;20060;-69
2024/02/06 03:24:07;;;;;;;7.00;2.70;;;10.90;94.10;;;;;;5053030;28;20074;-69
2024/02/06 03:26:33;;;;;;;9.32;3.42;;;10.90;94.10;;;;;;5043829;28;21904;-69
2024/02/06 03:28:59;;;;;;;9.60;3.30;;;10.90;94.10;;;;;;5048568;28;20056;-69
2024/02/06 03:31:25;;;;;;;6.10;2.78;;;11.00;94.10;;;;;;5048601;28;20048;-68
2024/02/06 03:33:50;;;;;;;7.70;2.38;;;11.00;94.00;;;;;;5049930;28;20022;-69
2024/02/06 03:36:16;;;;;;;8.13;2.97;;;11.00;94.00;;;;;;5047167;28;20079;-68
2024/02/06 03:38:41;;;;;;;5.20;2.40;;;11.00;94.00;;;;;;5049121;28;20044;-68
2024/02/06 03:41:07;;;;;;;4.13;2.00;;;11.00;94.00;;;;;;5047747;28;20028;-68
2024/02/06 03:43:32;;;;;;;7.07;2.72;;;11.00;94.00;;;;;;5045873;28;20033;-68
2024/02/06 03:45:58;;;;;;;9.20;3.03;;;11.00;93.90;;;;;;5047220;28;20025;-68
2024/02/06 03:48:23;;;;;;;11.52;3.40;;;11.00;93.90;;;;;;5046261;28;20022;-69
2024/02/06 03:50:49;;;;;;;5.68;2.55;;;11.00;93.90;;;;;;5047789;28;20116;-68
2024/02/06 03:53:15;;;;;;;5.93;2.83;;;11.00;93.90;;;;;;5049260;28;20104;-67
2024/02/06 03:55:41;;;;;;;6.25;2.72;;;11.00;93.90;;;;;;5048805;28;20074;-68
2024/02/06 03:58:09;;;;;;;6.75;2.63;;;11.00;94.00;;;;;;5047662;28;20033;-68
2024/02/06 04:00:35;;;;;;;4.97;2.38;;;11.00;94.00;;;;;;5049371;28;22009;-67
2024/02/06 04:03:00;;;;;;;5.97;2.92;;;11.00;94.10;;;;;;5049506;28;20021;-66
2024/02/06 04:05:26;;;;;;;6.07;2.50;;;11.00;94.10;;;;;;5047723;28;20055;-67
2024/02/06 04:07:52;;;;;;;8.85;3.55;;;10.90;94.20;;;;;;5043645;28;20025;-68
2024/02/06 04:10:18;;;;;;;6.13;3.13;;;10.90;94.30;;;;;;5045068;28;20026;-68
2024/02/06 04:12:43;;;;;;;5.45;3.10;;;10.90;94.30;;;;;;5044202;28;20475;-68
2024/02/06 04:15:09;;;;;;;5.80;3.10;;;10.80;94.40;;;;;;5048859;28;20029;-68
2024/02/06 04:17:35;;;;;;;5.45;2.75;;;10.80;94.40;;;;;;5048634;28;22493;-70
2024/02/06 04:20:00;;;;;;;5.95;3.05;;;10.80;94.40;;;;;;5047223;28;20028;-69
2024/02/06 04:22:26;;;;;;;4.95;3.10;;;10.80;94.70;;;;;;5041934;28;20100;-68
2024/02/06 04:24:51;;;;;;;8.45;4.10;;;10.80;94.50;;;;;;5048938;28;20100;-68
2024/02/06 04:27:18;;;;;;;5.40;3.20;;;10.80;94.50;;;;;;5047466;28;20773;-69
2024/02/06 04:29:43;;;;;;;8.23;3.28;;;10.80;94.60;;;;;;5046764;28;20503;-69
2024/02/06 04:32:09;;;;;;;12.27;4.50;;;10.80;94.70;;;;;;5049051;28;20063;-68
2024/02/06 04:34:34;;;;;;;6.50;3.20;;;10.80;94.70;;;;;;5045892;28;20029;-68
2024/02/06 04:37:00;;;;;;;7.32;4.00;;;10.80;94.70;;;;;;5046769;28;20041;-67
2024/02/06 04:39:25;;;;;;;4.88;3.15;;;10.80;94.80;;;;;;5047507;28;20037;-67
2024/02/06 04:41:52;;;;;;;7.38;3.80;;;10.70;94.80;;;;;;5048820;28;20031;-67
2024/02/06 04:44:18;;;;;;;7.70;4.07;;;10.70;94.90;;;;;;5048440;28;20036;-68
2024/02/06 04:46:44;;;;;;;6.63;3.50;;;10.70;95.00;;;;;;5043798;28;20025;-66
2024/02/06 04:49:09;;;;;;;5.93;3.88;;;10.70;95.10;;;;;;5047990;28;20029;-68
2024/02/06 04:51:36;;;;;;;6.13;3.30;;;10.70;95.20;;;;;;5048226;28;20112;-67
2024/02/06 04:54:02;;;;;;;7.57;4.03;;;10.70;95.20;;;;;;5048369;28;20130;-67
2024/02/06 04:56:28;;;;;;;6.03;3.33;;;10.70;95.30;;;;;;5046479;28;20067;-67
2024/02/06 04:58:54;;;;;;;6.55;3.35;;;10.70;95.30;;;;;;5048348;28;20538;-68
2024/02/06 05:01:20;;;;;;;5.88;3.33;;;10.70;95.40;;;;;;5047678;28;20037;-68
2024/02/06 05:03:46;;;;;;;4.82;3.05;;;10.70;95.30;;;;;;5048389;28;20028;-69
2024/02/06 05:06:12;;;;;;;8.02;4.30;;;10.70;95.30;;;;;;5047572;28;20079;-69
2024/02/06 05:08:39;;;;;;;7.88;3.78;;;10.70;95.40;;;;;;5047439;28;20487;-68
2024/02/06 05:11:05;;;;;;;9.48;4.25;;;10.70;95.40;;;;;;5049435;28;20029;-67
2024/02/06 05:13:31;;;;;;;6.10;3.50;;;10.70;95.40;;;;;;5045701;28;20052;-67
2024/02/06 05:15:57;;;;;;;4.65;2.80;;;10.70;95.50;;;;;;5045540;28;20991;-66
2024/02/06 05:18:23;;;;;;;7.60;3.72;;;10.70;95.60;;;;;;5046731;28;20025;-66
2024/02/06 05:20:49;;;;;;;6.47;3.30;;;10.70;95.60;;;;;;5044662;28;20028;-67
2024/02/06 05:23:14;;;;;;;5.68;2.75;;;10.70;95.60;;;;;;5046398;28;20100;-66
2024/02/06 05:25:41;;;;;;;5.10;2.50;;;10.70;95.60;;;;;;5044371;28;20070;-66
2024/02/06 05:28:07;;;;;;;5.65;2.83;;;10.70;95.60;;;;;;5050718;28;20051;-67
2024/02/06 05:30:35;;;;;;;6.95;3.08;;;10.70;95.60;;;;;;5046191;28;20021;-67
2024/02/06 05:33:01;;;;;;;6.88;3.40;;;10.70;95.70;;;;;;5046735;28;20052;-65
2024/02/06 05:35:27;;;;;;;7.03;3.50;;;10.60;95.70;;;;;;5047277;28;20053;-65
2024/02/06 05:37:52;;;;;;;8.38;3.40;;;10.60;95.80;;;;;;5046758;28;20071;-66
2024/02/06 05:40:18;;;;;;;5.28;3.25;;;10.70;95.90;;;;;;5047814;28;20052;-65
2024/02/06 05:42:43;;;;;;;7.45;3.50;;;10.70;95.90;;;;;;5045880;28;20028;-66
2024/02/06 05:45:09;;;;;;;6.07;3.17;;;10.70;95.90;;;;;;5047576;28;20395;-67
2024/02/06 05:47:35;;;;;;;5.30;3.03;;;10.60;95.90;;;;;;5045505;28;20096;-67
2024/02/06 05:50:01;;;;;;;9.32;3.28;;;10.60;96.00;;;;;;5045965;28;20116;-68
2024/02/06 05:52:27;;;;;;;10.68;3.80;;;10.60;96.00;;;;;;5045780;28;20017;-68
2024/02/06 05:54:52;;;;;;;7.00;3.70;;;10.60;96.10;;;;;;5044464;28;20483;-69
2024/02/06 05:57:18;;;;;;;6.90;3.38;;;10.60;96.20;;;;;;5047331;28;20526;-68
2024/02/06 05:59:43;;;;;;;5.32;3.10;;;10.60;96.20;;;;;;5045454;28;20103;-68
2024/02/06 06:02:09;;;;;;;7.82;3.25;;;10.60;96.20;;;;;;5043650;28;20017;-68
2024/02/06 06:04:34;;;;;;;5.88;3.22;;;10.70;96.20;;;;;;5046663;28;20025;-68
2024/02/06 06:07:00;;;;;;;6.10;2.88;;;10.70;96.20;;;;;;5047471;28;20032;-68
2024/02/06 06:09:25;;;;;;;7.10;3.83;;;10.70;96.20;;;;;;5048307;28;20021;-68
2024/02/06 06:11:51;;;;;;;6.10;3.40;;;10.60;96.30;;;;;;5045155;28;20041;-68
2024/02/06 06:14:17;;;;;;;9.50;3.30;;;10.70;96.30;;;;;;5050162;28;20083;-69
2024/02/06 06:16:42;;;;;;;5.90;3.40;;;10.70;96.40;;;;;;5050631;28;20041;-69
2024/02/06 06:19:08;;;;;;;6.85;3.33;;;10.70;96.40;;;;;;5050442;28;20079;-68
2024/02/06 06:21:33;;;;;;;5.68;3.20;;;10.70;96.40;;;;;;5045059;28;20522;-68
2024/02/06 06:23:59;;;;;;;4.43;2.80;;;10.70;96.40;;;;;;5049679;28;20474;-68
2024/02/06 06:26:25;;;;;;;4.80;2.70;;;10.70;96.40;;;;;;5049583;28;20634;-68
2024/02/06 06:28:50;;;;;;;6.05;3.20;;;10.60;96.40;;;;;;5047915;28;20035;-68
2024/02/06 06:31:17;;;;;;;7.85;3.80;;;10.70;96.50;;;;;;5051750;28;20040;-68
2024/02/06 06:33:43;;;;;;;7.95;4.40;;;10.60;96.50;;;;;;5047358;28;20483;-67
2024/02/06 06:36:09;;;;;;;7.72;3.90;;;10.60;96.60;;;;;;5042128;28;20036;-67
2024/02/06 06:38:35;;;;;;;6.05;3.00;;;10.60;96.60;;;;;;5048841;28;20032;-67
2024/02/06 06:41:00;;;;;;;4.65;2.80;;;10.60;96.60;;;;;;5050372;28;20037;-68
2024/02/06 06:43:26;;;;;;;5.10;3.13;;;10.60;96.60;;;;;;5048432;28;20018;-67
2024/02/06 06:45:52;;;;;;;6.03;3.10;;;10.60;96.60;;;;;;5050273;28;20374;-67
2024/02/06 06:48:17;;;;;;;4.45;2.67;;;10.60;96.70;;;;;;5050853;28;20024;-67
2024/02/06 06:50:43;;;;;;;5.50;2.72;;;10.60;96.70;;;;;;5047836;28;20091;-67
2024/02/06 06:53:09;;;;;;;6.53;3.40;;;10.60;96.80;;;;;;5051080;28;20028;-68
2024/02/06 06:55:35;;;;;;;5.97;2.92;;;10.60;96.80;;;;;;5050053;28;20086;-67
2024/02/06 06:58:00;;;;;;;8.75;4.00;;;10.60;96.90;;;;;;5048776;28;20067;-67
2024/02/06 07:00:26;;;;;;;7.65;3.28;;;10.60;97.00;;;;;;5049589;28;20661;-68
2024/02/06 07:02:52;;;;;;;6.60;3.47;;;10.60;97.00;;;;;;5047519;28;20037;-68
2024/02/06 07:05:21;;;;;;;8.88;3.65;;;10.60;97.00;;;;;;5046724;28;20017;-68
2024/02/06 07:07:47;;;;;;;4.85;2.88;;;10.60;97.10;;;;;;5048192;28;20024;-68
2024/02/06 07:10:12;;;;;;;7.93;3.15;;;10.60;97.00;;;;;;5046726;28;20032;-69
2024/02/06 07:12:38;;;;;;;6.38;3.08;;;10.60;97.30;;;;;;5046475;28;20110;-68
2024/02/06 07:15:04;;;;;;;4.50;2.38;;;10.60;97.00;;;;;;5047813;28;20029;-68
2024/02/06 07:17:30;;;;;;;8.27;3.83;;;10.70;97.10;;;;;;5048141;28;20178;-69
2024/02/06 07:19:56;;;;;;;5.82;3.10;;;10.60;97.10;;;;;;5047206;28;20021;-68
2024/02/06 07:22:22;;;;;;;6.47;3.38;;;10.60;97.10;;;;;;5043341;28;20025;-68
2024/02/06 07:24:47;;;;;;;7.10;3.08;;;10.60;97.30;;;;;;5048744;28;20029;-69
2024/02/06 07:27:13;;;;;;;8.38;3.30;;;10.60;97.30;;;;;;5046503;28;20025;-68
2024/02/06 07:29:38;;;;;;;9.95;3.28;;;10.60;97.30;;;;;;5043801;28;20508;-69
2024/02/06 07:32:04;;;;;;;9.10;3.65;;;10.60;97.30;;;;;;5044307;28;20108;-69
2024/02/06 07:34:30;;;;;;;8.30;3.97;;;10.60;97.50;;;;;;5046496;28;20025;-68
2024/02/06 07:36:55;;;;;;;8.10;3.28;;;10.60;97.50;;;;;;5044165;28;20060;-69
2024/02/06 07:39:21;;;;;;;5.47;2.90;;;10.60;97.60;;;;;;5047855;28;20108;-68
2024/02/06 07:41:47;;;;;;;7.32;2.85;;;10.60;97.50;;;;;;5045415;28;20029;-69
2024/02/06 07:44:12;;;;;;;5.53;2.50;;;10.60;97.50;;;;;;5041701;28;20021;-68
2024/02/06 07:46:38;;;;;;;7.72;3.15;;;10.70;97.50;;;;;;5042887;28;20030;-68
2024/02/06 07:49:04;;;;;;;8.88;3.40;;;10.70;97.50;;;;;;5046393;28;20025;-68
2024/02/06 07:51:30;;;;;;;5.18;2.25;;;10.60;97.50;;;;;;5048632;28;20044;-68
2024/02/06 07:53:56;;;;;;;6.50;2.97;;;10.70;97.60;;;;;;5045992;28;20029;-68
2024/02/06 07:56:22;;;;;;;6.35;3.20;;;10.70;97.70;;;;;;5049673;28;20021;-68
2024/02/06 07:58:48;;;;;;;6.20;2.63;;;10.60;97.70;;;;;;5045651;28;20074;-68
2024/02/06 08:01:15;;;;;;;7.75;2.95;;;10.60;97.80;;;;;;5049240;28;20398;-67
2024/02/06 08:03:41;;;;;;;7.10;2.70;;;10.70;97.80;;;;;;5047997;28;20032;-67
2024/02/06 08:06:07;;;;;;;7.85;3.63;;;10.70;97.80;;;;;;5046786;28;20472;-68
2024/02/06 08:08:33;;;;;;;8.15;3.67;;;10.70;97.90;;;;;;5046394;28;20467;-67
2024/02/06 08:10:59;;;;;;;8.40;3.70;;;10.60;97.90;;;;;;5049147;28;20028;-68
2024/02/06 08:13:25;;;;;;;9.70;4.80;;;10.60;98.00;;;;;;5047046;28;20033;-68
2024/02/06 08:15:50;;;;;;;11.68;5.53;;;10.60;98.10;;;;;;5047633;28;20514;-69
2024/02/06 08:18:16;;;;;;;9.43;3.97;;;10.60;98.30;;;;;;5049466;28;20025;-69
2024/02/06 08:20:41;;;;;;;8.07;3.40;;;10.60;98.30;;;;;;5053961;28;20029;-69
2024/02/06 08:23:10;;;;;;;6.07;3.15;;;10.60;98.30;;;;;;5041037;28;20068;-69
2024/02/06 08:25:35;;;;;;;9.95;4.30;;;10.60;98.30;;;;;;5045459;28;20017;-69
2024/02/06 08:28:01;;;;;;;10.05;4.05;;;10.60;98.30;;;;;;5046892;28;20119;-68
2024/02/06 08:30:26;;;;;;;8.80;3.97;;;10.60;98.30;;;;;;5048598;28;20545;-69
2024/02/06 08:32:52;;;;;;;12.60;4.03;;;10.60;98.30;;;;;;5049258;28;20083;-70
2024/02/06 08:35:18;;;;;;;5.80;3.10;;;10.60;98.40;;;;;;5049076;28;20025;-68
2024/02/06 08:37:43;;;;;;;5.80;3.00;;;10.70;98.40;;;;;;5048606;28;20040;-68
2024/02/06 08:40:10;;;;;;;4.95;2.17;;;10.70;98.40;;;;;;5054255;28;20021;-68
2024/02/06 08:42:36;;;;;;;5.13;2.90;;;10.70;98.30;;;;;;5047337;28;20035;-68
2024/02/06 08:45:03;;;;;;;7.53;3.53;;;10.70;98.30;;;;;;5051355;28;20457;-68
2024/02/06 08:47:29;;;;;;;10.80;3.70;;;10.70;98.40;;;;;;5041068;28;20107;-69
2024/02/06 08:49:54;;;;;;;5.82;3.08;;;10.60;98.40;;;;;;5049523;28;20162;-68
2024/02/06 08:52:20;;;;;;;8.82;3.33;;;10.70;98.50;;;;;;5047382;28;20521;-68
2024/02/06 08:54:46;;;;;;;10.00;4.10;;;10.70;98.50;;;;;;5047938;28;20465;-68
2024/02/06 08:57:11;;;;;;;6.93;3.22;;;10.70;98.60;;;;;;5048056;28;20105;-69
2024/02/06 08:59:37;;;;;;;8.50;3.30;;;10.70;98.70;;;;;;5048636;28;20060;-69
2024/02/06 09:02:03;;;;;;;4.93;2.78;;;10.70;98.60;;;;;;5046904;28;20029;-69
2024/02/06 09:04:30;;;;;;;5.00;2.92;;;10.70;98.70;;;;;;5045702;28;20060;-69
2024/02/06 09:06:58;;;;;;;8.07;3.55;;;10.70;98.70;;;;;;5042158;28;20024;-69
2024/02/06 09:09:24;;;;;;;8.75;3.20;;;10.70;98.80;;;;;;5045054;28;20032;-69
2024/02/06 09:11:49;;;;;;;7.07;2.90;;;10.70;98.80;;;;;;5042623;28;20029;-68
2024/02/06 09:14:15;;;;;;;7.95;3.13;;;10.70;98.90;;;;;;5047931;28;20025;-68
2024/02/06 09:16:41;;;;;;;6.20;2.80;;;10.80;98.80;;;;;;5045171;28;20029;-68
2024/02/06 09:19:08;;;;;;;6.55;2.50;;;10.80;98.90;;;;;;5048153;28;20040;-68
2024/02/06 09:21:34;;;;;;;10.05;3.28;;;10.80;98.90;;;;;;5048168;28;20017;-68
2024/02/06 09:24:00;;;;;;;6.20;2.63;;;10.90;98.90;;;;;;5048790;28;20036;-69
2024/02/06 09:26:26;;;;;;;7.13;2.70;;;10.90;98.90;;;;;;5037750;28;20095;-68
2024/02/06 09:28:51;;;;;;;5.28;2.10;;;11.00;98.80;;;;;;5048542;28;20507;-68
2024/02/06 09:31:17;;;;;;;12.18;3.60;;;11.00;98.80;;;;;;5048775;28;20111;-68
2024/02/06 09:33:43;;;;;;;7.80;2.60;;;11.00;98.80;;;;;;5048440;28;20091;-68
2024/02/06 09:36:09;;;;;;;6.70;2.47;;;11.10;98.80;;;;;;5047901;28;20036;-69
2024/02/06 09:38:35;;;;;;;6.75;2.22;;;11.10;98.80;;;;;;5044562;28;20095;-68
2024/02/06 09:41:01;;;;;;;6.50;2.30;;;11.20;98.70;;;;;;5049046;28;20369;-68
2024/02/06 09:43:27;;;;;;;5.30;2.05;;;11.20;98.70;;;;;;5047395;28;20479;-67
2024/02/06 09:45:53;;;;;;;7.03;2.05;;;11.20;98.60;;;;;;5050793;28;20135;-68
2024/02/06 09:48:24;;;;;;;5.32;2.03;;;11.30;98.60;;;;;;5050195;28;20117;-68
2024/02/06 09:50:54;;;;;;;7.80;2.37;;;11.30;98.60;;;;;;5045289;28;20021;-68
2024/02/06 09:53:20;;;;;;;5.10;2.15;;;11.30;98.50;;;;;;5059591;28;20021;-68
2024/02/06 09:55:47;;;;;;;5.80;2.17;;;11.40;98.50;;;;;;5044108;28;20683;-69
2024/02/06 09:58:14;;;;;;;5.03;1.70;;;11.40;98.40;;;;;;5045119;28;20033;-68
2024/02/06 10:00:42;;;;;;;8.02;1.92;;;11.50;98.30;;;;;;5044351;28;20040;-68
2024/02/06 10:03:15;;;;;;;6.88;1.98;;;11.60;98.30;;;;;;5046342;28;20021;-69
2024/02/06 10:05:42;;;;;;;8.02;2.30;;;11.60;98.20;;;;;;5041817;28;20021;-68
2024/02/06 10:08:10;;;;;;;7.80;1.92;;;11.60;98.10;;;;;;5047536;28;20029;-69
2024/02/06 10:10:36;;;;;;;4.65;1.88;;;11.70;97.90;;;;;;5048261;28;20387;-68
2024/02/06 10:13:05;;;;;;;5.15;1.90;;;11.80;97.80;;;;;;5044764;28;20032;-69
2024/02/06 10:15:30;;;;;;;7.30;2.05;;;11.70;97.60;;;;;;5046125;28;20032;-68
2024/02/06 10:17:57;;;;;;;5.28;2.00;;;11.80;97.60;;;;;;5047505;28;20411;-68
2024/02/06 10:20:22;;;;;;;4.82;1.95;;;11.80;97.50;;;;;;5039755;28;20032;-69
2024/02/06 10:22:48;;;;;;;7.90;2.05;;;11.90;97.50;;;;;;5048498;28;20025;-69
2024/02/06 10:25:14;;;;;;;6.15;1.90;;;12.00;97.30;;;;;;5046984;28;20029;-69
2024/02/06 10:27:40;;;;;;;5.93;2.10;;;11.90;97.20;;;;;;5044000;28;20024;-68
2024/02/06 10:30:10;;;;;;;3.35;2.05;;;12.00;97.20;;;;;;5046998;28;20029;-69
2024/02/06 10:32:38;;;;;;;6.20;2.35;;;12.00;97.10;;;;;;5042907;28;20025;-68
2024/02/06 10:35:05;;;;;;;6.53;2.17;;;12.10;97.10;;;;;;5045984;28;20029;-69
2024/02/06 10:37:35;;;;;;;9.73;2.55;;;12.10;97.00;;;;;;5043694;28;20025;-69
2024/02/06 10:40:09;;;;;;;5.80;2.47;;;12.10;97.00;;;;;;5048027;28;20024;-68
2024/02/06 10:42:39;;;;;;;7.00;2.83;;;12.10;96.90;;;;;;5043111;28;20013;-68
2024/02/06 10:45:05;;;;;;;4.03;2.22;;;12.20;97.10;;;;;;5044683;28;20013;-68
2024/02/06 10:47:31;;;;;;;6.57;2.33;;;12.20;96.80;;;;;;5047507;28;20024;-68
2024/02/06 10:50:01;;;;;;;7.22;2.38;;;12.20;96.70;;;;;;5042188;28;20376;-68
2024/02/06 10:52:27;;;;;;;5.53;2.05;;;12.30;96.70;;;;;;5047427;28;20036;-68
2024/02/06 10:54:53;;;;;;;6.00;1.67;;;12.30;96.60;;;;;;5045577;28;20538;-69
2024/02/06 10:57:21;;;;;;;5.30;1.73;;;12.40;96.60;;;;;;5050340;28;20163;-69
2024/02/06 11:00:21;;;;;;;3.47;1.75;;;12.40;96.50;;;;;;5049748;28;20040;-69
2024/02/06 11:02:56;;;;;;;6.95;2.25;;;12.40;96.30;;;;;;5044733;28;20066;-67
2024/02/06 11:05:40;;;;;;;9.80;2.40;;;12.50;96.00;;;;;;5047411;28;20036;-67
2024/02/06 11:08:09;;;;;;;6.05;1.88;;;12.50;96.00;;;;;;5046324;28;20499;-68
2024/02/06 11:10:36;;;;;;;4.97;1.73;;;12.50;95.80;;;;;;5048683;28;20456;-68
2024/02/06 11:13:11;;;;;;;10.05;2.53;;;12.60;95.70;;;;;;5048934;28;20021;-68
2024/02/06 11:15:40;;;;;;;7.13;2.15;;;12.60;95.50;;;;;;5048547;28;20444;-68
2024/02/06 11:18:12;;;;;;;5.82;1.75;;;12.60;95.40;;;;;;5049737;28;20025;-68
2024/02/06 11:20:40;;;;;;;8.40;2.20;;;12.70;95.40;;;;;;5049579;28;20021;-68
2024/02/06 11:23:09;;;;;;;6.60;2.30;;;12.70;95.10;;;;;;5049917;28;20486;-68
2024/02/06 11:25:38;;;;;;;5.63;2.08;;;12.70;95.10;;;;;;5050115;28;20142;-68
2024/02/06 11:28:05;;;;;;;7.00;2.38;;;12.70;94.90;;;;;;5047847;28;20021;-67
2024/02/06 11:30:32;;;;;;;8.20;2.40;;;12.70;94.80;;;;;;5047377;28;20032;-68
2024/02/06 11:33:02;;;;;;;9.30;2.72;;;12.70;94.80;;;;;;5049915;28;20029;-68
2024/02/06 11:35:28;;;;;;;6.72;2.95;;;12.70;94.70;;;;;;5049820;28;20021;-67
2024/02/06 11:37:53;;;;;;;8.23;2.58;;;12.70;94.50;;;;;;5046810;28;20032;-68
2024/02/06 11:40:25;;;;;;;8.85;3.25;;;12.70;94.60;;;;;;5049309;28;20045;-67
2024/02/06 11:42:59;;;;;;;9.98;2.38;;;12.70;94.50;;;;;;5048598;28;20025;-68
2024/02/06 11:45:24;;;;;;;4.07;1.70;;;12.70;94.50;;;;;;5048497;28;20021;-68
2024/02/06 11:47:55;;;;;;;6.72;1.80;;;12.70;94.50;;;;;;5050179;28;20036;-69
2024/02/06 11:50:34;;;;;;;7.53;1.90;;;12.70;94.50;;;;;;5050688;28;20479;-69
2024/02/06 11:53:04;;;;;;;7.57;1.95;;;12.70;94.40;;;;;;5050335;28;20082;-68
2024/02/06 11:55:31;;;;;;;5.95;1.73;;;12.70;94.30;;;;;;5053936;28;20025;-68
2024/02/06 11:58:00;;;;;;;7.65;2.28;;;12.70;94.30;;;;;;5047759;28;20103;-69
2024/02/06 12:00:26;;;;;;;5.90;1.90;;;12.70;94.20;;;;;;5047570;28;20054;-68
2024/02/06 12:02:53;;;;;;;9.93;2.97;;;12.70;94.10;;;;;;5051476;28;20595;-68
2024/02/06 12:05:19;;;;;;;8.07;2.05;;;12.70;93.80;;;;;;5051804;28;20021;-68
2024/02/06 12:07:58;;;;;;;4.68;1.60;;;12.70;93.80;;;;;;5050660;28;20051;-69
2024/02/06 12:10:29;;;;;;;6.07;1.90;;;12.80;93.70;;;;;;5051675;28;20029;-69
2024/02/06 12:12:56;;;;;;;5.63;1.77;;;12.70;93.20;;;;;;5051251;28;20028;-68
2024/02/06 12:15:23;;;;;;;4.68;1.65;;;12.70;93.40;;;;;;5052897;28;20275;-68
2024/02/06 12:17:49;;;;;;;3.95;1.35;;;12.70;93.40;;;;;;5050155;28;20048;-69
2024/02/06 12:20:19;;;;;;;4.13;1.52;;;12.80;93.50;;;;;;5051607;28;20029;-68
2024/02/06 12:22:55;;;;;;;3.67;1.63;;;12.80;93.00;;;;;;5047729;28;20032;-69
2024/02/06 12:25:21;;;;;;;6.15;1.63;;;12.80;92.80;;;;;;5051568;28;20021;-69
2024/02/06 12:27:56;;;;;;;6.72;1.70;;;12.80;92.90;;;;;;5051357;28;20626;-69
2024/02/06 12:30:22;;;;;;;5.90;1.85;;;12.80;92.80;;;;;;5051362;28;20499;-69
2024/02/06 12:32:48;;;;;;;6.07;1.90;;;12.70;92.60;;;;;;5050539;28;20035;-69
2024/02/06 12:35:16;;;;;;;3.80;2.00;;;12.70;92.60;;;;;;5048391;28;20032;-68
2024/02/06 12:37:43;;;;;;;3.42;1.40;;;12.70;92.60;;;;;;5046480;28;20018;-68
2024/02/06 12:40:10;;;;;;;5.38;1.88;;;12.70;92.70;;;;;;5050104;28;20025;-67
2024/02/06 12:42:36;;;;;;;5.07;1.90;;;12.70;92.70;;;;;;5049841;28;20587;-68